sensor_id;sensor_type;location;lat;lon;timestamp;temperature;humidity
42479;DHT22;28110;47.080;9.476;2023-06-22T00:01:49;25.50;87.10
42479;DHT22;28110;47.080;9.476;2023-06-22T00:04:15;25.50;85.90
42479;DHT22;28110;47.080;9.476;2023-06-22T00:06:41;25.50;85.00
42479;DHT22;28110;47.080;9.476;2023-06-22T00:09:06;25.50;84.40
42479;DHT22;28110;47.080;9.476;2023-06-22T00:11:33;25.50;84.40
42479;DHT22;28110;47.080;9.476;2023-06-22T00:13:59;25.60;82.70
42479;DHT22;28110;47.080;9.476;2023-06-22T00:16:24;25.60;83.20
42479;DHT22;28110;47.080;9.476;2023-06-22T00:18:50;25.60;82.80
42479;DHT22;28110;47.080;9.476;2023-06-22T00:21:16;25.50;84.10
42479;DHT22;28110;47.080;9.476;2023-06-22T00:23:41;25.50;84.30
42479;DHT22;28110;47.080;9.476;2023-06-22T00:26:07;25.40;84.70
42479;DHT22;28110;47.080;9.476;2023-06-22T00:28:34;25.40;82.20
42479;DHT22;28110;47.080;9.476;2023-06-22T00:30:59;25.50;83.20
42479;DHT22;28110;47.080;9.476;2023-06-22T00:33:26;25.50;82.60
42479;DHT22;28110;47.080;9.476;2023-06-22T00:35:52;25.70;82.50
42479;DHT22;28110;47.080;9.476;2023-06-22T00:38:19;25.70;81.90
42479;DHT22;28110;47.080;9.476;2023-06-22T00:40:44;25.80;80.80
42479;DHT22;28110;47.080;9.476;2023-06-22T00:43:10;25.90;80.50
42479;DHT22;28110;47.080;9.476;2023-06-22T00:45:36;25.90;80.50
42479;DHT22;28110;47.080;9.476;2023-06-22T00:48:02;26.00;81.10
42479;DHT22;28110;47.080;9.476;2023-06-22T00:50:32;25.90;80.80
42479;DHT22;28110;47.080;9.476;2023-06-22T00:53:06;25.90;80.70
42479;DHT22;28110;47.080;9.476;2023-06-22T00:55:40;25.80;81.20
42479;DHT22;28110;47.080;9.476;2023-06-22T00:58:09;25.80;81.10
42479;DHT22;28110;47.080;9.476;2023-06-22T01:00:36;25.80;80.10
42479;DHT22;28110;47.080;9.476;2023-06-22T01:03:02;25.90;81.30
42479;DHT22;28110;47.080;9.476;2023-06-22T01:05:28;25.80;81.10
42479;DHT22;28110;47.080;9.476;2023-06-22T01:08:29;25.80;80.00
42479;DHT22;28110;47.080;9.476;2023-06-22T01:11:20;25.80;79.60
42479;DHT22;28110;47.080;9.476;2023-06-22T01:14:00;25.90;79.40
42479;DHT22;28110;47.080;9.476;2023-06-22T01:16:31;25.90;79.50
42479;DHT22;28110;47.080;9.476;2023-06-22T01:22:01;26.00;76.90
42479;DHT22;28110;47.080;9.476;2023-06-22T01:24:41;26.00;77.90
42479;DHT22;28110;47.080;9.476;2023-06-22T01:30:01;26.10;78.20
42479;DHT22;28110;47.080;9.476;2023-06-22T01:32:30;26.10;77.60
42479;DHT22;28110;47.080;9.476;2023-06-22T01:34:58;26.10;78.60
42479;DHT22;28110;47.080;9.476;2023-06-22T01:37:25;26.10;77.80
42479;DHT22;28110;47.080;9.476;2023-06-22T01:39:52;26.20;74.40
42479;DHT22;28110;47.080;9.476;2023-06-22T01:42:19;26.30;75.80
42479;DHT22;28110;47.080;9.476;2023-06-22T01:44:45;26.30;74.20
42479;DHT22;28110;47.080;9.476;2023-06-22T01:47:11;26.40;76.30
42479;DHT22;28110;47.080;9.476;2023-06-22T01:49:40;26.30;76.00
42479;DHT22;28110;47.080;9.476;2023-06-22T01:52:07;26.20;77.40
42479;DHT22;28110;47.080;9.476;2023-06-22T01:54:32;26.10;76.60
42479;DHT22;28110;47.080;9.476;2023-06-22T01:56:58;26.10;75.00
42479;DHT22;28110;47.080;9.476;2023-06-22T01:59:36;26.10;73.80
42479;DHT22;28110;47.080;9.476;2023-06-22T02:02:07;26.20;74.60
42479;DHT22;28110;47.080;9.476;2023-06-22T02:04:38;26.20;74.80
42479;DHT22;28110;47.080;9.476;2023-06-22T02:07:08;26.20;73.70
42479;DHT22;28110;47.080;9.476;2023-06-22T02:09:35;26.30;73.70
42479;DHT22;28110;47.080;9.476;2023-06-22T02:12:05;26.30;72.80
42479;DHT22;28110;47.080;9.476;2023-06-22T02:14:31;26.30;73.70
42479;DHT22;28110;47.080;9.476;2023-06-22T02:16:58;26.30;73.30
42479;DHT22;28110;47.080;9.476;2023-06-22T02:19:27;26.40;73.10
42479;DHT22;28110;47.080;9.476;2023-06-22T02:21:52;26.40;71.80
42479;DHT22;28110;47.080;9.476;2023-06-22T02:24:18;26.40;72.50
42479;DHT22;28110;47.080;9.476;2023-06-22T02:26:44;26.40;73.30
42479;DHT22;28110;47.080;9.476;2023-06-22T02:29:11;26.30;73.10
42479;DHT22;28110;47.080;9.476;2023-06-22T02:31:36;26.30;72.50
42479;DHT22;28110;47.080;9.476;2023-06-22T02:34:02;26.30;72.30
42479;DHT22;28110;47.080;9.476;2023-06-22T02:36:27;26.30;71.40
42479;DHT22;28110;47.080;9.476;2023-06-22T02:38:56;26.30;69.80
42479;DHT22;28110;47.080;9.476;2023-06-22T02:41:24;26.40;70.20
42479;DHT22;28110;47.080;9.476;2023-06-22T02:43:49;26.50;68.80
42479;DHT22;28110;47.080;9.476;2023-06-22T02:46:15;26.60;69.00
42479;DHT22;28110;47.080;9.476;2023-06-22T02:48:41;26.50;69.90
42479;DHT22;28110;47.080;9.476;2023-06-22T02:51:06;26.50;69.30
42479;DHT22;28110;47.080;9.476;2023-06-22T02:53:32;26.50;70.60
42479;DHT22;28110;47.080;9.476;2023-06-22T02:55:58;26.40;70.00
42479;DHT22;28110;47.080;9.476;2023-06-22T02:58:23;26.40;70.00
42479;DHT22;28110;47.080;9.476;2023-06-22T03:00:49;26.40;69.30
42479;DHT22;28110;47.080;9.476;2023-06-22T03:03:18;26.40;69.20
42479;DHT22;28110;47.080;9.476;2023-06-22T03:05:44;26.50;68.40
42479;DHT22;28110;47.080;9.476;2023-06-22T03:08:09;26.60;69.00
42479;DHT22;28110;47.080;9.476;2023-06-22T03:10:35;26.60;69.30
42479;DHT22;28110;47.080;9.476;2023-06-22T03:13:00;26.50;68.00
42479;DHT22;28110;47.080;9.476;2023-06-22T03:15:26;26.50;67.80
42479;DHT22;28110;47.080;9.476;2023-06-22T03:17:54;26.50;68.50
42479;DHT22;28110;47.080;9.476;2023-06-22T03:20:20;26.60;67.10
42479;DHT22;28110;47.080;9.476;2023-06-22T03:22:45;26.60;67.40
42479;DHT22;28110;47.080;9.476;2023-06-22T03:25:11;26.70;65.90
42479;DHT22;28110;47.080;9.476;2023-06-22T03:27:39;26.70;67.10
42479;DHT22;28110;47.080;9.476;2023-06-22T03:30:06;26.70;66.90
42479;DHT22;28110;47.080;9.476;2023-06-22T03:32:32;26.70;64.80
42479;DHT22;28110;47.080;9.476;2023-06-22T03:34:57;26.80;65.30
42479;DHT22;28110;47.080;9.476;2023-06-22T03:37:25;26.80;66.10
42479;DHT22;28110;47.080;9.476;2023-06-22T03:39:51;26.90;65.70
42479;DHT22;28110;47.080;9.476;2023-06-22T03:42:16;26.80;66.10
42479;DHT22;28110;47.080;9.476;2023-06-22T03:44:42;26.80;64.70
42479;DHT22;28110;47.080;9.476;2023-06-22T03:47:07;26.90;63.60
42479;DHT22;28110;47.080;9.476;2023-06-22T03:49:34;27.00;63.90
42479;DHT22;28110;47.080;9.476;2023-06-22T03:52:00;27.00;63.60
42479;DHT22;28110;47.080;9.476;2023-06-22T03:54:28;27.00;64.40
42479;DHT22;28110;47.080;9.476;2023-06-22T03:56:54;26.90;64.30
42479;DHT22;28110;47.080;9.476;2023-06-22T03:59:19;27.00;62.90
42479;DHT22;28110;47.080;9.476;2023-06-22T04:01:45;27.00;63.20
42479;DHT22;28110;47.080;9.476;2023-06-22T04:04:11;27.00;62.80
42479;DHT22;28110;47.080;9.476;2023-06-22T04:06:38;27.10;63.50
42479;DHT22;28110;47.080;9.476;2023-06-22T04:09:03;27.00;64.30
42479;DHT22;28110;47.080;9.476;2023-06-22T04:11:29;27.00;65.10
42479;DHT22;28110;47.080;9.476;2023-06-22T04:13:54;26.90;66.20
42479;DHT22;28110;47.080;9.476;2023-06-22T04:16:20;26.90;64.50
42479;DHT22;28110;47.080;9.476;2023-06-22T04:18:46;26.90;64.90
42479;DHT22;28110;47.080;9.476;2023-06-22T04:21:12;26.90;64.80
42479;DHT22;28110;47.080;9.476;2023-06-22T04:23:38;26.90;64.10
42479;DHT22;28110;47.080;9.476;2023-06-22T04:26:04;26.90;64.80
42479;DHT22;28110;47.080;9.476;2023-06-22T04:28:29;26.80;64.70
42479;DHT22;28110;47.080;9.476;2023-06-22T04:31:01;27.00;64.00
42479;DHT22;28110;47.080;9.476;2023-06-22T04:33:28;27.00;63.20
42479;DHT22;28110;47.080;9.476;2023-06-22T04:35:55;27.10;63.20
42479;DHT22;28110;47.080;9.476;2023-06-22T04:38:22;27.20;63.40
42479;DHT22;28110;47.080;9.476;2023-06-22T04:40:48;27.10;64.00
42479;DHT22;28110;47.080;9.476;2023-06-22T04:43:14;27.00;64.80
42479;DHT22;28110;47.080;9.476;2023-06-22T04:45:40;27.00;64.90
42479;DHT22;28110;47.080;9.476;2023-06-22T04:48:05;26.90;64.60
42479;DHT22;28110;47.080;9.476;2023-06-22T04:50:31;27.00;65.90
42479;DHT22;28110;47.080;9.476;2023-06-22T04:52:57;26.90;65.70
42479;DHT22;28110;47.080;9.476;2023-06-22T04:55:23;26.90;66.50
42479;DHT22;28110;47.080;9.476;2023-06-22T04:57:51;26.80;65.70
42479;DHT22;28110;47.080;9.476;2023-06-22T05:00:18;26.80;66.20
42479;DHT22;28110;47.080;9.476;2023-06-22T05:02:48;26.80;66.10
42479;DHT22;28110;47.080;9.476;2023-06-22T05:05:14;26.80;66.30
42479;DHT22;28110;47.080;9.476;2023-06-22T05:07:49;26.70;66.30
42479;DHT22;28110;47.080;9.476;2023-06-22T05:10:18;26.80;68.60
42479;DHT22;28110;47.080;9.476;2023-06-22T05:12:45;26.80;70.90
42479;DHT22;28110;47.080;9.476;2023-06-22T05:15:11;26.80;78.80
42479;DHT22;28110;47.080;9.476;2023-06-22T05:17:37;26.80;66.80
42479;DHT22;28110;47.080;9.476;2023-06-22T05:20:11;26.70;80.10
42479;DHT22;28110;47.080;9.476;2023-06-22T05:22:38;26.40;87.10
42479;DHT22;28110;47.080;9.476;2023-06-22T05:25:08;26.20;89.00
42479;DHT22;28110;47.080;9.476;2023-06-22T05:27:35;26.10;87.30
42479;DHT22;28110;47.080;9.476;2023-06-22T05:30:06;26.20;81.70
42479;DHT22;28110;47.080;9.476;2023-06-22T05:32:32;26.30;85.40
42479;DHT22;28110;47.080;9.476;2023-06-22T05:34:57;26.30;79.00
42479;DHT22;28110;47.080;9.476;2023-06-22T05:37:23;26.30;89.80
42479;DHT22;28110;47.080;9.476;2023-06-22T05:39:48;26.20;90.60
42479;DHT22;28110;47.080;9.476;2023-06-22T05:42:14;26.20;91.10
42479;DHT22;28110;47.080;9.476;2023-06-22T05:44:39;26.40;90.70
42479;DHT22;28110;47.080;9.476;2023-06-22T05:47:06;26.50;91.00
42479;DHT22;28110;47.080;9.476;2023-06-22T05:49:31;26.70;89.20
42479;DHT22;28110;47.080;9.476;2023-06-22T05:51:58;26.90;85.50
42479;DHT22;28110;47.080;9.476;2023-06-22T05:54:24;27.10;72.20
42479;DHT22;28110;47.080;9.476;2023-06-22T05:56:50;27.40;70.10
42479;DHT22;28110;47.080;9.476;2023-06-22T05:59:15;27.70;69.30
42479;DHT22;28110;47.080;9.476;2023-06-22T06:01:41;27.80;67.20
42479;DHT22;28110;47.080;9.476;2023-06-22T06:04:06;28.10;66.10
42479;DHT22;28110;47.080;9.476;2023-06-22T06:06:35;28.30;65.00
42479;DHT22;28110;47.080;9.476;2023-06-22T06:09:03;28.50;64.30
42479;DHT22;28110;47.080;9.476;2023-06-22T06:11:29;28.70;61.40
42479;DHT22;28110;47.080;9.476;2023-06-22T06:13:55;29.10;60.90
42479;DHT22;28110;47.080;9.476;2023-06-22T06:16:20;29.30;59.00
42479;DHT22;28110;47.080;9.476;2023-06-22T06:18:46;29.50;58.90
42479;DHT22;28110;47.080;9.476;2023-06-22T06:21:11;29.60;58.00
42479;DHT22;28110;47.080;9.476;2023-06-22T06:23:37;29.60;58.70
42479;DHT22;28110;47.080;9.476;2023-06-22T06:26:02;29.60;58.20
42479;DHT22;28110;47.080;9.476;2023-06-22T06:28:32;29.70;58.00
42479;DHT22;28110;47.080;9.476;2023-06-22T06:30:57;29.90;57.50
42479;DHT22;28110;47.080;9.476;2023-06-22T06:33:23;30.10;56.50
42479;DHT22;28110;47.080;9.476;2023-06-22T06:35:49;30.40;56.20
42479;DHT22;28110;47.080;9.476;2023-06-22T06:38:15;30.60;54.90
42479;DHT22;28110;47.080;9.476;2023-06-22T06:40:40;30.60;55.00
42479;DHT22;28110;47.080;9.476;2023-06-22T06:43:06;30.60;54.50
42479;DHT22;28110;47.080;9.476;2023-06-22T06:45:32;30.40;54.20
42479;DHT22;28110;47.080;9.476;2023-06-22T06:47:59;30.30;55.40
42479;DHT22;28110;47.080;9.476;2023-06-22T06:50:25;30.10;55.90
42479;DHT22;28110;47.080;9.476;2023-06-22T06:52:51;30.10;55.30
42479;DHT22;28110;47.080;9.476;2023-06-22T06:55:17;30.10;53.90
42479;DHT22;28110;47.080;9.476;2023-06-22T06:57:43;30.20;53.40
42479;DHT22;28110;47.080;9.476;2023-06-22T07:00:12;30.40;53.80
42479;DHT22;28110;47.080;9.476;2023-06-22T07:02:40;30.50;55.00
42479;DHT22;28110;47.080;9.476;2023-06-22T07:05:06;30.70;51.60
42479;DHT22;28110;47.080;9.476;2023-06-22T07:07:32;30.80;52.50
42479;DHT22;28110;47.080;9.476;2023-06-22T07:09:58;30.80;54.20
42479;DHT22;28110;47.080;9.476;2023-06-22T07:12:24;31.00;53.10
42479;DHT22;28110;47.080;9.476;2023-06-22T07:14:49;31.10;52.80
42479;DHT22;28110;47.080;9.476;2023-06-22T07:17:16;31.20;52.30
42479;DHT22;28110;47.080;9.476;2023-06-22T07:19:41;31.20;51.40
42479;DHT22;28110;47.080;9.476;2023-06-22T07:22:07;31.20;50.70
42479;DHT22;28110;47.080;9.476;2023-06-22T07:24:33;31.40;50.70
42479;DHT22;28110;47.080;9.476;2023-06-22T07:26:59;31.30;53.10
42479;DHT22;28110;47.080;9.476;2023-06-22T07:29:25;31.10;53.20
42479;DHT22;28110;47.080;9.476;2023-06-22T07:31:52;30.80;53.60
42479;DHT22;28110;47.080;9.476;2023-06-22T07:34:18;30.70;53.50
42479;DHT22;28110;47.080;9.476;2023-06-22T07:36:44;30.90;53.00
42479;DHT22;28110;47.080;9.476;2023-06-22T07:39:11;31.20;52.70
42479;DHT22;28110;47.080;9.476;2023-06-22T07:41:39;31.20;51.80
42479;DHT22;28110;47.080;9.476;2023-06-22T07:44:06;31.30;51.60
42479;DHT22;28110;47.080;9.476;2023-06-22T07:46:32;31.50;51.60
42479;DHT22;28110;47.080;9.476;2023-06-22T07:48:57;31.80;51.90
42479;DHT22;28110;47.080;9.476;2023-06-22T07:51:23;31.80;50.20
42479;DHT22;28110;47.080;9.476;2023-06-22T07:53:49;31.80;51.10
42479;DHT22;28110;47.080;9.476;2023-06-22T07:56:14;31.60;50.40
42479;DHT22;28110;47.080;9.476;2023-06-22T07:58:44;31.60;50.40
42479;DHT22;28110;47.080;9.476;2023-06-22T08:01:10;31.50;51.70
42479;DHT22;28110;47.080;9.476;2023-06-22T08:03:36;31.40;52.10
42479;DHT22;28110;47.080;9.476;2023-06-22T08:06:03;31.30;50.90
42479;DHT22;28110;47.080;9.476;2023-06-22T08:08:28;31.20;52.00
42479;DHT22;28110;47.080;9.476;2023-06-22T08:10:54;31.10;51.90
42479;DHT22;28110;47.080;9.476;2023-06-22T08:13:19;31.00;53.10
42479;DHT22;28110;47.080;9.476;2023-06-22T08:15:45;31.00;53.70
42479;DHT22;28110;47.080;9.476;2023-06-22T08:18:11;30.90;54.00
42479;DHT22;28110;47.080;9.476;2023-06-22T08:20:36;30.90;53.00
42479;DHT22;28110;47.080;9.476;2023-06-22T08:23:02;30.90;53.20
42479;DHT22;28110;47.080;9.476;2023-06-22T08:25:32;31.00;51.30
42479;DHT22;28110;47.080;9.476;2023-06-22T08:27:58;31.00;52.00
42479;DHT22;28110;47.080;9.476;2023-06-22T08:30:23;31.00;51.00
42479;DHT22;28110;47.080;9.476;2023-06-22T08:32:49;31.00;51.70
42479;DHT22;28110;47.080;9.476;2023-06-22T08:35:15;31.10;51.60
42479;DHT22;28110;47.080;9.476;2023-06-22T08:37:40;31.10;51.60
42479;DHT22;28110;47.080;9.476;2023-06-22T08:40:08;31.00;52.20
42479;DHT22;28110;47.080;9.476;2023-06-22T08:42:39;31.00;53.10
42479;DHT22;28110;47.080;9.476;2023-06-22T08:45:06;31.00;52.90
42479;DHT22;28110;47.080;9.476;2023-06-22T08:47:32;31.00;52.90
42479;DHT22;28110;47.080;9.476;2023-06-22T08:49:57;31.00;52.40
42479;DHT22;28110;47.080;9.476;2023-06-22T08:52:23;31.00;53.30
42479;DHT22;28110;47.080;9.476;2023-06-22T08:54:49;31.00;53.80
42479;DHT22;28110;47.080;9.476;2023-06-22T08:57:15;31.10;52.90
42479;DHT22;28110;47.080;9.476;2023-06-22T08:59:41;31.10;53.70
42479;DHT22;28110;47.080;9.476;2023-06-22T09:02:07;31.00;54.90
42479;DHT22;28110;47.080;9.476;2023-06-22T09:04:33;31.00;54.50
42479;DHT22;28110;47.080;9.476;2023-06-22T09:07:00;30.90;55.40
42479;DHT22;28110;47.080;9.476;2023-06-22T09:09:26;30.80;55.50
42479;DHT22;28110;47.080;9.476;2023-06-22T09:11:52;30.70;56.30
42479;DHT22;28110;47.080;9.476;2023-06-22T09:14:17;30.70;56.60
42479;DHT22;28110;47.080;9.476;2023-06-22T09:16:43;30.50;57.20
42479;DHT22;28110;47.080;9.476;2023-06-22T09:19:08;30.50;57.70
42479;DHT22;28110;47.080;9.476;2023-06-22T09:21:34;30.40;60.80
42479;DHT22;28110;47.080;9.476;2023-06-22T09:23:59;30.40;59.60
42479;DHT22;28110;47.080;9.476;2023-06-22T09:26:25;30.40;57.70
42479;DHT22;28110;47.080;9.476;2023-06-22T09:28:51;30.40;57.00
42479;DHT22;28110;47.080;9.476;2023-06-22T09:31:16;30.50;58.30
42479;DHT22;28110;47.080;9.476;2023-06-22T09:33:42;30.50;56.40
42479;DHT22;28110;47.080;9.476;2023-06-22T09:36:08;30.60;57.40
42479;DHT22;28110;47.080;9.476;2023-06-22T09:38:37;30.70;58.10
42479;DHT22;28110;47.080;9.476;2023-06-22T09:41:03;30.80;58.60
42479;DHT22;28110;47.080;9.476;2023-06-22T09:43:31;30.90;57.70
42479;DHT22;28110;47.080;9.476;2023-06-22T09:45:57;30.90;59.00
42479;DHT22;28110;47.080;9.476;2023-06-22T09:48:23;30.90;59.50
42479;DHT22;28110;47.080;9.476;2023-06-22T09:50:48;30.90;61.90
42479;DHT22;28110;47.080;9.476;2023-06-22T09:53:14;30.90;61.90
42479;DHT22;28110;47.080;9.476;2023-06-22T09:55:39;30.90;60.30
42479;DHT22;28110;47.080;9.476;2023-06-22T09:58:05;30.90;66.00
42479;DHT22;28110;47.080;9.476;2023-06-22T10:00:30;30.90;67.50
42479;DHT22;28110;47.080;9.476;2023-06-22T10:02:56;30.50;70.20
42479;DHT22;28110;47.080;9.476;2023-06-22T10:05:22;30.20;71.40
42479;DHT22;28110;47.080;9.476;2023-06-22T10:07:48;30.20;74.00
42479;DHT22;28110;47.080;9.476;2023-06-22T10:10:14;30.20;72.30
42479;DHT22;28110;47.080;9.476;2023-06-22T10:12:46;30.20;74.30
42479;DHT22;28110;47.080;9.476;2023-06-22T10:15:12;30.20;73.10
42479;DHT22;28110;47.080;9.476;2023-06-22T10:17:38;30.30;73.50
42479;DHT22;28110;47.080;9.476;2023-06-22T10:20:05;30.40;74.10
42479;DHT22;28110;47.080;9.476;2023-06-22T10:22:38;30.40;74.80
42479;DHT22;28110;47.080;9.476;2023-06-22T10:25:03;30.30;74.10
42479;DHT22;28110;47.080;9.476;2023-06-22T10:27:29;30.20;76.00
42479;DHT22;28110;47.080;9.476;2023-06-22T10:29:55;30.20;77.70
42479;DHT22;28110;47.080;9.476;2023-06-22T10:32:20;29.90;80.50
42479;DHT22;28110;47.080;9.476;2023-06-22T10:34:46;29.70;81.30
42479;DHT22;28110;47.080;9.476;2023-06-22T10:37:11;29.40;81.60
42479;DHT22;28110;47.080;9.476;2023-06-22T10:39:37;29.30;83.50
42479;DHT22;28110;47.080;9.476;2023-06-22T10:42:02;29.10;83.80
42479;DHT22;28110;47.080;9.476;2023-06-22T10:44:28;28.90;85.70
42479;DHT22;28110;47.080;9.476;2023-06-22T10:46:53;28.80;85.70
42479;DHT22;28110;47.080;9.476;2023-06-22T10:49:19;28.60;85.10
42479;DHT22;28110;47.080;9.476;2023-06-22T10:51:44;28.50;86.60
42479;DHT22;28110;47.080;9.476;2023-06-22T10:54:10;28.30;87.60
42479;DHT22;28110;47.080;9.476;2023-06-22T10:56:35;28.30;88.40
42479;DHT22;28110;47.080;9.476;2023-06-22T10:59:01;28.30;89.10
42479;DHT22;28110;47.080;9.476;2023-06-22T11:01:27;28.40;89.60
42479;DHT22;28110;47.080;9.476;2023-06-22T11:03:53;28.50;90.10
42479;DHT22;28110;47.080;9.476;2023-06-22T11:06:18;28.60;89.40
42479;DHT22;28110;47.080;9.476;2023-06-22T11:08:44;28.80;89.90
42479;DHT22;28110;47.080;9.476;2023-06-22T11:11:10;28.90;89.70
42479;DHT22;28110;47.080;9.476;2023-06-22T11:13:36;29.10;89.60
42479;DHT22;28110;47.080;9.476;2023-06-22T11:16:01;29.30;89.50
42479;DHT22;28110;47.080;9.476;2023-06-22T11:18:27;29.50;88.70
42479;DHT22;28110;47.080;9.476;2023-06-22T11:20:52;29.70;89.10
42479;DHT22;28110;47.080;9.476;2023-06-22T11:23:18;29.90;89.10
42479;DHT22;28110;47.080;9.476;2023-06-22T11:25:44;30.20;86.40
42479;DHT22;28110;47.080;9.476;2023-06-22T11:28:11;30.30;86.60
42479;DHT22;28110;47.080;9.476;2023-06-22T11:30:37;30.50;86.50
42479;DHT22;28110;47.080;9.476;2023-06-22T11:33:02;30.50;85.30
42479;DHT22;28110;47.080;9.476;2023-06-22T11:35:28;30.60;82.10
42479;DHT22;28110;47.080;9.476;2023-06-22T11:37:53;30.40;81.20
42479;DHT22;28110;47.080;9.476;2023-06-22T11:40:19;30.20;81.20
42479;DHT22;28110;47.080;9.476;2023-06-22T11:42:45;30.10;82.90
42479;DHT22;28110;47.080;9.476;2023-06-22T11:45:11;29.90;83.90
42479;DHT22;28110;47.080;9.476;2023-06-22T11:47:37;29.80;84.20
42479;DHT22;28110;47.080;9.476;2023-06-22T11:50:03;29.60;85.10
42479;DHT22;28110;47.080;9.476;2023-06-22T11:52:28;29.50;86.50
42479;DHT22;28110;47.080;9.476;2023-06-22T11:54:54;29.30;87.20
42479;DHT22;28110;47.080;9.476;2023-06-22T11:57:19;29.20;89.20
42479;DHT22;28110;47.080;9.476;2023-06-22T11:59:45;29.00;89.60
42479;DHT22;28110;47.080;9.476;2023-06-22T12:02:10;28.90;90.50
42479;DHT22;28110;47.080;9.476;2023-06-22T12:04:36;28.90;90.80
42479;DHT22;28110;47.080;9.476;2023-06-22T12:07:02;29.00;90.60
42479;DHT22;28110;47.080;9.476;2023-06-22T12:09:27;29.00;90.30
42479;DHT22;28110;47.080;9.476;2023-06-22T12:11:53;29.00;90.40
42479;DHT22;28110;47.080;9.476;2023-06-22T12:14:18;28.90;90.50
42479;DHT22;28110;47.080;9.476;2023-06-22T12:16:44;28.90;90.50
42479;DHT22;28110;47.080;9.476;2023-06-22T12:19:10;28.90;90.60
42479;DHT22;28110;47.080;9.476;2023-06-22T12:21:37;28.90;91.10
42479;DHT22;28110;47.080;9.476;2023-06-22T12:24:03;28.80;90.90
42479;DHT22;28110;47.080;9.476;2023-06-22T12:26:28;28.70;91.50
42479;DHT22;28110;47.080;9.476;2023-06-22T12:28:54;28.70;91.80
42479;DHT22;28110;47.080;9.476;2023-06-22T12:31:19;28.70;91.80
42479;DHT22;28110;47.080;9.476;2023-06-22T12:33:45;28.80;91.80
42479;DHT22;28110;47.080;9.476;2023-06-22T12:36:10;28.80;91.90
42479;DHT22;28110;47.080;9.476;2023-06-22T12:38:36;28.80;91.60
42479;DHT22;28110;47.080;9.476;2023-06-22T12:41:01;28.80;92.00
42479;DHT22;28110;47.080;9.476;2023-06-22T12:43:27;28.80;92.20
42479;DHT22;28110;47.080;9.476;2023-06-22T12:45:53;28.90;92.40
42479;DHT22;28110;47.080;9.476;2023-06-22T12:48:19;29.00;92.70
42479;DHT22;28110;47.080;9.476;2023-06-22T12:50:45;28.90;92.30
42479;DHT22;28110;47.080;9.476;2023-06-22T12:53:11;29.00;92.50
42479;DHT22;28110;47.080;9.476;2023-06-22T12:55:36;29.00;92.50
42479;DHT22;28110;47.080;9.476;2023-06-22T12:58:02;29.00;93.40
42479;DHT22;28110;47.080;9.476;2023-06-22T13:00:27;28.90;93.00
42479;DHT22;28110;47.080;9.476;2023-06-22T13:02:53;29.00;92.90
42479;DHT22;28110;47.080;9.476;2023-06-22T13:05:18;29.10;92.90
42479;DHT22;28110;47.080;9.476;2023-06-22T13:07:44;29.20;92.10
42479;DHT22;28110;47.080;9.476;2023-06-22T13:10:11;29.30;92.60
42479;DHT22;28110;47.080;9.476;2023-06-22T13:12:36;29.40;92.00
42479;DHT22;28110;47.080;9.476;2023-06-22T13:15:02;29.30;91.70
42479;DHT22;28110;47.080;9.476;2023-06-22T13:17:28;29.30;92.20
42479;DHT22;28110;47.080;9.476;2023-06-22T13:19:54;29.20;92.30
42479;DHT22;28110;47.080;9.476;2023-06-22T13:22:33;29.10;92.60
42479;DHT22;28110;47.080;9.476;2023-06-22T13:25:05;29.10;93.00
42479;DHT22;28110;47.080;9.476;2023-06-22T13:27:31;29.10;92.90
42479;DHT22;28110;47.080;9.476;2023-06-22T13:29:56;29.10;92.60
42479;DHT22;28110;47.080;9.476;2023-06-22T13:32:22;29.10;92.30
42479;DHT22;28110;47.080;9.476;2023-06-22T13:34:47;29.10;92.90
42479;DHT22;28110;47.080;9.476;2023-06-22T13:37:13;29.10;92.30
42479;DHT22;28110;47.080;9.476;2023-06-22T13:39:39;29.10;92.00
42479;DHT22;28110;47.080;9.476;2023-06-22T13:42:05;29.10;92.40
42479;DHT22;28110;47.080;9.476;2023-06-22T13:44:30;29.10;92.50
42479;DHT22;28110;47.080;9.476;2023-06-22T13:46:56;29.20;92.30
42479;DHT22;28110;47.080;9.476;2023-06-22T13:49:22;29.10;92.70
42479;DHT22;28110;47.080;9.476;2023-06-22T13:51:47;29.20;92.60
42479;DHT22;28110;47.080;9.476;2023-06-22T13:54:13;29.20;92.90
42479;DHT22;28110;47.080;9.476;2023-06-22T13:56:39;29.30;92.70
42479;DHT22;28110;47.080;9.476;2023-06-22T13:59:04;29.40;92.70
42479;DHT22;28110;47.080;9.476;2023-06-22T14:01:32;29.50;92.00
42479;DHT22;28110;47.080;9.476;2023-06-22T14:03:57;29.60;91.60
42479;DHT22;28110;47.080;9.476;2023-06-22T14:06:23;29.60;91.70
42479;DHT22;28110;47.080;9.476;2023-06-22T14:08:48;29.70;91.30
42479;DHT22;28110;47.080;9.476;2023-06-22T14:11:14;29.70;91.20
42479;DHT22;28110;47.080;9.476;2023-06-22T14:13:40;29.70;90.80
42479;DHT22;28110;47.080;9.476;2023-06-22T14:16:08;29.70;91.20
42479;DHT22;28110;47.080;9.476;2023-06-22T14:18:33;29.70;90.90
42479;DHT22;28110;47.080;9.476;2023-06-22T14:20:59;29.80;91.00
42479;DHT22;28110;47.080;9.476;2023-06-22T14:23:25;29.90;90.50
42479;DHT22;28110;47.080;9.476;2023-06-22T14:25:50;29.90;90.30
42479;DHT22;28110;47.080;9.476;2023-06-22T14:28:16;30.00;90.60
42479;DHT22;28110;47.080;9.476;2023-06-22T14:30:42;30.00;90.40
42479;DHT22;28110;47.080;9.476;2023-06-22T14:33:07;29.90;89.70
42479;DHT22;28110;47.080;9.476;2023-06-22T14:35:33;29.90;89.90
42479;DHT22;28110;47.080;9.476;2023-06-22T14:37:58;29.80;90.10
42479;DHT22;28110;47.080;9.476;2023-06-22T14:40:24;29.70;90.80
42479;DHT22;28110;47.080;9.476;2023-06-22T14:42:49;29.60;93.90
42479;DHT22;28110;47.080;9.476;2023-06-22T14:45:15;29.50;95.50
42479;DHT22;28110;47.080;9.476;2023-06-22T14:47:40;29.30;95.40
42479;DHT22;28110;47.080;9.476;2023-06-22T14:50:06;29.10;95.80
42479;DHT22;28110;47.080;9.476;2023-06-22T14:52:31;28.80;94.90
42479;DHT22;28110;47.080;9.476;2023-06-22T14:54:57;28.40;97.30
42479;DHT22;28110;47.080;9.476;2023-06-22T14:57:22;27.90;96.30
42479;DHT22;28110;47.080;9.476;2023-06-22T14:59:49;27.60;98.10
42479;DHT22;28110;47.080;9.476;2023-06-22T15:02:14;27.40;99.90
42479;DHT22;28110;47.080;9.476;2023-06-22T15:04:40;27.20;99.90
42479;DHT22;28110;47.080;9.476;2023-06-22T15:07:06;27.20;99.90
42479;DHT22;28110;47.080;9.476;2023-06-22T15:09:31;27.10;99.90
42479;DHT22;28110;47.080;9.476;2023-06-22T15:11:57;27.20;99.90
42479;DHT22;28110;47.080;9.476;2023-06-22T15:14:23;27.20;99.90
42479;DHT22;28110;47.080;9.476;2023-06-22T15:16:50;27.10;99.90
42479;DHT22;28110;47.080;9.476;2023-06-22T15:19:15;27.20;99.90
42479;DHT22;28110;47.080;9.476;2023-06-22T15:21:41;27.20;99.90
42479;DHT22;28110;47.080;9.476;2023-06-22T15:24:06;27.20;99.90
42479;DHT22;28110;47.080;9.476;2023-06-22T15:26:32;27.10;99.90
42479;DHT22;28110;47.080;9.476;2023-06-22T15:28:57;27.10;99.90
42479;DHT22;28110;47.080;9.476;2023-06-22T15:31:23;27.20;99.90